Time;durP1;ratioP1;P1;durP2;ratioP2;P2;SDS_P1;SDS_P2;PMS_P1;PMS_P2;Temp;Humidity;BMP_temperature;BMP_pressure;BME280_temperature;BME280_humidity;BME280_pressure;Samples;Min_cycle;Max_cycle;Signal;HPM_P1;HPM_P2
2019/04/10 00:00:39;;;;;;;21.4;16.15;;;;;;;9.59;73.89453;94356.44;;;;
2019/04/10 00:01:46;;;;;;;21.4;16.15;;;;;;;9.59;73.89453;94356.44;;;;
2019/04/10 00:02:47;;;;;;;21.4;16.15;;;;;;;9.59;73.89453;94356.44;;;;
2019/04/10 00:03:48;;;;;;;21.4;16.15;;;;;;;9.59;73.89453;94356.44;;;;
2019/04/10 00:04:49;;;;;;;21.4;16.15;;;;;;;9.59;73.89453;94356.44;;;;
2019/04/10 00:05:51;;;;;;;21.4;16.15;;;;;;;9.59;73.89453;94356.44;;;;
2019/04/10 00:06:52;;;;;;;21.4;16.15;;;;;;;9.59;73.89453;94356.44;;;;
2019/04/10 00:07:53;;;;;;;21.4;16.15;;;;;;;9.59;73.89453;94356.44;;;;
2019/04/10 00:08:54;;;;;;;21.4;16.15;;;;;;;9.59;73.89453;94356.44;;;;
2019/04/10 00:09:55;;;;;;;22.1;16.05;;;;;;;9.57;74.40234;94356.43;;;;
2019/04/10 00:10:56;;;;;;;22.1;16.05;;;;;;;9.57;74.40234;94356.43;;;;
2019/04/10 00:11:58;;;;;;;22.1;16.05;;;;;;;9.57;74.40234;94356.43;;;;
2019/04/10 00:12:59;;;;;;;22.1;16.05;;;;;;;9.57;74.40234;94356.43;;;;
2019/04/10 00:14:00;;;;;;;22.1;16.05;;;;;;;9.57;74.40234;94356.43;;;;
2019/04/10 00:15:01;;;;;;;22.1;16.05;;;;;;;9.57;74.40234;94356.43;;;;
2019/04/10 00:16:03;;;;;;;22.1;16.05;;;;;;;9.57;74.40234;94356.43;;;;
2019/04/10 00:17:04;;;;;;;22.1;16.05;;;;;;;9.57;74.40234;94356.43;;;;
2019/04/10 00:18:05;;;;;;;22.1;16.05;;;;;;;9.57;74.40234;94356.43;;;;
2019/04/10 00:19:06;;;;;;;22.1;16.05;;;;;;;9.57;74.40234;94356.43;;;;
2019/04/10 00:20:07;;;;;;;20.35;15;;;;;;;9.54;74.8457;94360.02;;;;
2019/04/10 00:21:08;;;;;;;20.35;15;;;;;;;9.54;74.8457;94360.02;;;;
2019/04/10 00:22:10;;;;;;;20.35;15;;;;;;;9.54;74.8457;94360.02;;;;
2019/04/10 00:23:11;;;;;;;20.35;15;;;;;;;9.54;74.8457;94360.02;;;;
2019/04/10 00:24:12;;;;;;;20.35;15;;;;;;;9.54;74.8457;94360.02;;;;
2019/04/10 00:25:13;;;;;;;20.35;15;;;;;;;9.54;74.8457;94360.02;;;;
2019/04/10 00:26:15;;;;;;;20.35;15;;;;;;;9.54;74.8457;94360.02;;;;
2019/04/10 00:27:16;;;;;;;20.35;15;;;;;;;9.54;74.8457;94360.02;;;;
2019/04/10 00:28:17;;;;;;;20.35;15;;;;;;;9.54;74.8457;94360.02;;;;
2019/04/10 00:29:18;;;;;;;20.35;15;;;;;;;9.54;74.8457;94360.02;;;;
2019/04/10 00:30:19;;;;;;;21.35;15.15;;;;;;;9.59;75.06738;94350.27;;;;
2019/04/10 00:31:20;;;;;;;21.35;15.15;;;;;;;9.59;75.06738;94350.27;;;;
2019/04/10 00:32:22;;;;;;;21.35;15.15;;;;;;;9.59;75.06738;94350.27;;;;
2019/04/10 00:33:23;;;;;;;21.35;15.15;;;;;;;9.59;75.06738;94350.27;;;;
2019/04/10 00:34:24;;;;;;;21.35;15.15;;;;;;;9.59;75.06738;94350.27;;;;
2019/04/10 00:35:25;;;;;;;21.35;15.15;;;;;;;9.59;75.06738;94350.27;;;;
2019/04/10 00:36:26;;;;;;;21.35;15.15;;;;;;;9.59;75.06738;94350.27;;;;
2019/04/10 00:37:28;;;;;;;21.35;15.15;;;;;;;9.59;75.06738;94350.27;;;;
2019/04/10 00:38:29;;;;;;;21.35;15.15;;;;;;;9.59;75.06738;94350.27;;;;
2019/04/10 00:39:30;;;;;;;21.35;15.15;;;;;;;9.59;75.06738;94350.27;;;;
2019/04/10 00:40:31;;;;;;;21.35;15.15;;;;;;;9.59;75.06738;94350.27;;;;
2019/04/10 00:41:32;;;;;;;19.75;14.75;;;;;;;9.56;75.20313;94343.48;;;;
2019/04/10 00:42:33;;;;;;;19.75;14.75;;;;;;;9.56;75.20313;94343.48;;;;
2019/04/10 00:43:35;;;;;;;19.75;14.75;;;;;;;9.56;75.20313;94343.48;;;;
2019/04/10 00:44:36;;;;;;;19.75;14.75;;;;;;;9.56;75.20313;94343.48;;;;
2019/04/10 00:45:37;;;;;;;19.75;14.75;;;;;;;9.56;75.20313;94343.48;;;;
2019/04/10 00:46:38;;;;;;;19.75;14.75;;;;;;;9.56;75.20313;94343.48;;;;
2019/04/10 00:47:39;;;;;;;19.75;14.75;;;;;;;9.56;75.20313;94343.48;;;;
2019/04/10 00:48:40;;;;;;;19.75;14.75;;;;;;;9.56;75.20313;94343.48;;;;
2019/04/10 00:49:41;;;;;;;19.75;14.75;;;;;;;9.56;75.20313;94343.48;;;;
2019/04/10 00:50:43;;;;;;;19.75;14.75;;;;;;;9.56;75.20313;94343.48;;;;
2019/04/10 00:51:44;;;;;;;19.9;15.2;;;;;;;9.57;75.46094;94341.05;;;;
2019/04/10 00:52:45;;;;;;;19.9;15.2;;;;;;;9.57;75.46094;94341.05;;;;
2019/04/10 00:53:46;;;;;;;19.9;15.2;;;;;;;9.57;75.46094;94341.05;;;;
2019/04/10 00:54:48;;;;;;;19.9;15.2;;;;;;;9.57;75.46094;94341.05;;;;
2019/04/10 00:55:49;;;;;;;19.9;15.2;;;;;;;9.57;75.46094;94341.05;;;;
2019/04/10 00:56:50;;;;;;;19.9;15.2;;;;;;;9.57;75.46094;94341.05;;;;
2019/04/10 00:57:51;;;;;;;19.9;15.2;;;;;;;9.57;75.46094;94341.05;;;;
2019/04/10 00:58:52;;;;;;;19.9;15.2;;;;;;;9.57;75.46094;94341.05;;;;
2019/04/10 00:59:53;;;;;;;19.9;15.2;;;;;;;9.57;75.46094;94341.05;;;;
2019/04/10 01:00:54;;;;;;;19.9;15.2;;;;;;;9.57;75.46094;94341.05;;;;
2019/04/10 01:01:56;;;;;;;19.85;14.3;;;;;;;9.53;76.04102;94340.89;;;;
2019/04/10 01:02:57;;;;;;;19.85;14.3;;;;;;;9.53;76.04102;94340.89;;;;
2019/04/10 01:03:58;;;;;;;19.85;14.3;;;;;;;9.53;76.04102;94340.89;;;;
2019/04/10 01:04:59;;;;;;;19.85;14.3;;;;;;;9.53;76.04102;94340.89;;;;
2019/04/10 01:06:01;;;;;;;19.85;14.3;;;;;;;9.53;76.04102;94340.89;;;;
2019/04/10 01:07:02;;;;;;;19.85;14.3;;;;;;;9.53;76.04102;94340.89;;;;
2019/04/10 01:08:03;;;;;;;19.85;14.3;;;;;;;9.53;76.04102;94340.89;;;;
2019/04/10 01:09:07;;;;;;;19.85;14.3;;;;;;;9.53;76.04102;94340.89;;;;
2019/04/10 01:10:08;;;;;;;19.85;14.3;;;;;;;9.53;76.04102;94340.89;;;;
2019/04/10 01:11:10;;;;;;;19.85;14.3;;;;;;;9.53;76.04102;94340.89;;;;
2019/04/10 01:12:11;;;;;;;19.85;14.3;;;;;;;9.53;76.04102;94340.89;;;;
2019/04/10 01:13:12;;;;;;;22.1;16;;;;;;;9.55;76.31152;94342.8;;;;
2019/04/10 01:14:13;;;;;;;22.1;16;;;;;;;9.55;76.31152;94342.8;;;;
2019/04/10 01:15:14;;;;;;;22.1;16;;;;;;;9.55;76.31152;94342.8;;;;
2019/04/10 01:16:16;;;;;;;22.1;16;;;;;;;9.55;76.31152;94342.8;;;;
2019/04/10 01:17:17;;;;;;;22.1;16;;;;;;;9.55;76.31152;94342.8;;;;
2019/04/10 01:18:18;;;;;;;22.1;16;;;;;;;9.55;76.31152;94342.8;;;;
2019/04/10 01:19:19;;;;;;;22.1;16;;;;;;;9.55;76.31152;94342.8;;;;
2019/04/10 01:20:21;;;;;;;22.1;16;;;;;;;9.55;76.31152;94342.8;;;;
2019/04/10 01:21:22;;;;;;;22.1;16;;;;;;;9.55;76.31152;94342.8;;;;
2019/04/10 01:22:23;;;;;;;22.1;16;;;;;;;9.55;76.31152;94342.8;;;;
2019/04/10 01:23:24;;;;;;;20.65;16.1;;;;;;;9.49;76.70508;94337.48;;;;
2019/04/10 01:24:26;;;;;;;20.65;16.1;;;;;;;9.49;76.70508;94337.48;;;;
2019/04/10 01:25:27;;;;;;;20.65;16.1;;;;;;;9.49;76.70508;94337.48;;;;
2019/04/10 01:26:28;;;;;;;20.65;16.1;;;;;;;9.49;76.70508;94337.48;;;;
2019/04/10 01:27:29;;;;;;;20.65;16.1;;;;;;;9.49;76.70508;94337.48;;;;
2019/04/10 01:28:30;;;;;;;20.65;16.1;;;;;;;9.49;76.70508;94337.48;;;;
2019/04/10 01:29:32;;;;;;;20.65;16.1;;;;;;;9.49;76.70508;94337.48;;;;
2019/04/10 01:30:33;;;;;;;20.65;16.1;;;;;;;9.49;76.70508;94337.48;;;;
2019/04/10 01:31:34;;;;;;;20.65;16.1;;;;;;;9.49;76.70508;94337.48;;;;
2019/04/10 01:32:35;;;;;;;20.65;16.1;;;;;;;9.49;76.70508;94337.48;;;;
2019/04/10 01:33:37;;;;;;;20.65;16.1;;;;;;;9.49;76.70508;94337.48;;;;
2019/04/10 01:34:38;;;;;;;25.35;17.75;;;;;;;9.47;76.79883;94325.61;;;;
2019/04/10 01:35:39;;;;;;;25.35;17.75;;;;;;;9.47;76.79883;94325.61;;;;
2019/04/10 01:36:41;;;;;;;25.35;17.75;;;;;;;9.47;76.79883;94325.61;;;;
2019/04/10 01:37:42;;;;;;;25.35;17.75;;;;;;;9.47;76.79883;94325.61;;;;
2019/04/10 01:38:43;;;;;;;25.35;17.75;;;;;;;9.47;76.79883;94325.61;;;;
2019/04/10 01:39:44;;;;;;;25.35;17.75;;;;;;;9.47;76.79883;94325.61;;;;
2019/04/10 01:40:46;;;;;;;25.35;17.75;;;;;;;9.47;76.79883;94325.61;;;;
2019/04/10 01:41:47;;;;;;;25.35;17.75;;;;;;;9.47;76.79883;94325.61;;;;
2019/04/10 01:42:48;;;;;;;25.35;17.75;;;;;;;9.47;76.79883;94325.61;;;;
2019/04/10 01:43:49;;;;;;;25.35;17.75;;;;;;;9.47;76.79883;94325.61;;;;
2019/04/10 01:44:50;;;;;;;24.4;17.6;;;;;;;9.41;77.18262;94323.5;;;;
2019/04/10 01:45:52;;;;;;;24.4;17.6;;;;;;;9.41;77.18262;94323.5;;;;
2019/04/10 01:46:53;;;;;;;24.4;17.6;;;;;;;9.41;77.18262;94323.5;;;;
2019/04/10 01:47:54;;;;;;;24.4;17.6;;;;;;;9.41;77.18262;94323.5;;;;
2019/04/10 01:48:55;;;;;;;24.4;17.6;;;;;;;9.41;77.18262;94323.5;;;;
2019/04/10 01:49:57;;;;;;;24.4;17.6;;;;;;;9.41;77.18262;94323.5;;;;
2019/04/10 01:50:58;;;;;;;24.4;17.6;;;;;;;9.41;77.18262;94323.5;;;;
2019/04/10 01:51:59;;;;;;;24.4;17.6;;;;;;;9.41;77.18262;94323.5;;;;
2019/04/10 01:53:00;;;;;;;24.4;17.6;;;;;;;9.41;77.18262;94323.5;;;;
2019/04/10 01:54:02;;;;;;;24.4;17.6;;;;;;;9.41;77.18262;94323.5;;;;
2019/04/10 01:55:03;;;;;;;25.85;19.1;;;;;;;9.41;77.2998;94312.72;;;;
2019/04/10 01:56:05;;;;;;;25.85;19.1;;;;;;;9.41;77.2998;94312.72;;;;
2019/04/10 01:57:06;;;;;;;25.85;19.1;;;;;;;9.41;77.2998;94312.72;;;;
2019/04/10 01:58:11;;;;;;;25.85;19.1;;;;;;;9.41;77.2998;94312.72;;;;
2019/04/10 01:59:13;;;;;;;25.85;19.1;;;;;;;9.41;77.2998;94312.72;;;;
2019/04/10 02:00:16;;;;;;;25.85;19.1;;;;;;;9.41;77.2998;94312.72;;;;
2019/04/10 02:01:21;;;;;;;25.85;19.1;;;;;;;9.41;77.2998;94312.72;;;;
2019/04/10 02:02:29;;;;;;;25.85;19.1;;;;;;;9.41;77.2998;94312.72;;;;
2019/04/10 02:03:30;;;;;;;25.85;19.1;;;;;;;9.41;77.2998;94312.72;;;;
2019/04/10 02:04:31;;;;;;;25.85;19.1;;;;;;;9.41;77.2998;94312.72;;;;
2019/04/10 02:05:33;;;;;;;27.15001;20;;;;;;;9.33;77.50781;94306.98;;;;
2019/04/10 02:06:34;;;;;;;27.15001;20;;;;;;;9.33;77.50781;94306.98;;;;
2019/04/10 02:07:36;;;;;;;27.15001;20;;;;;;;9.33;77.50781;94306.98;;;;
2019/04/10 02:08:37;;;;;;;27.15001;20;;;;;;;9.33;77.50781;94306.98;;;;
2019/04/10 02:09:38;;;;;;;27.15001;20;;;;;;;9.33;77.50781;94306.98;;;;
2019/04/10 02:10:40;;;;;;;27.15001;20;;;;;;;9.33;77.50781;94306.98;;;;
2019/04/10 02:11:41;;;;;;;27.15001;20;;;;;;;9.33;77.50781;94306.98;;;;
2019/04/10 02:12:42;;;;;;;27.15001;20;;;;;;;9.33;77.50781;94306.98;;;;
2019/04/10 02:13:43;;;;;;;27.15001;20;;;;;;;9.33;77.50781;94306.98;;;;
2019/04/10 02:14:45;;;;;;;27.15001;20;;;;;;;9.33;77.50781;94306.98;;;;
2019/04/10 02:15:46;;;;;;;27.15001;20;;;;;;;9.33;77.50781;94306.98;;;;
2019/04/10 02:16:48;;;;;;;26.85;18.55;;;;;;;9.25;78.0918;94308.23;;;;
2019/04/10 02:17:49;;;;;;;26.85;18.55;;;;;;;9.25;78.0918;94308.23;;;;
2019/04/10 02:18:50;;;;;;;26.85;18.55;;;;;;;9.25;78.0918;94308.23;;;;
2019/04/10 02:19:52;;;;;;;26.85;18.55;;;;;;;9.25;78.0918;94308.23;;;;
2019/04/10 02:20:53;;;;;;;26.85;18.55;;;;;;;9.25;78.0918;94308.23;;;;
2019/04/10 02:21:54;;;;;;;26.85;18.55;;;;;;;9.25;78.0918;94308.23;;;;
2019/04/10 02:22:55;;;;;;;26.85;18.55;;;;;;;9.25;78.0918;94308.23;;;;
2019/04/10 02:23:56;;;;;;;26.85;18.55;;;;;;;9.25;78.0918;94308.23;;;;
2019/04/10 02:24:58;;;;;;;26.85;18.55;;;;;;;9.25;78.0918;94308.23;;;;
2019/04/10 02:25:59;;;;;;;26.85;18.55;;;;;;;9.25;78.0918;94308.23;;;;
2019/04/10 02:27:01;;;;;;;25.1;18.6;;;;;;;9.13;78.67676;94307.14;;;;
2019/04/10 02:28:02;;;;;;;25.1;18.6;;;;;;;9.13;78.67676;94307.14;;;;
2019/04/10 02:29:03;;;;;;;25.1;18.6;;;;;;;9.13;78.67676;94307.14;;;;
2019/04/10 02:30:04;;;;;;;25.1;18.6;;;;;;;9.13;78.67676;94307.14;;;;
2019/04/10 02:31:06;;;;;;;25.1;18.6;;;;;;;9.13;78.67676;94307.14;;;;
2019/04/10 02:32:07;;;;;;;25.1;18.6;;;;;;;9.13;78.67676;94307.14;;;;
2019/04/10 02:33:08;;;;;;;25.1;18.6;;;;;;;9.13;78.67676;94307.14;;;;
2019/04/10 02:34:09;;;;;;;25.1;18.6;;;;;;;9.13;78.67676;94307.14;;;;
2019/04/10 02:35:11;;;;;;;25.1;18.6;;;;;;;9.13;78.67676;94307.14;;;;
2019/04/10 02:36:12;;;;;;;25.1;18.6;;;;;;;9.13;78.67676;94307.14;;;;
2019/04/10 02:37:13;;;;;;;25.8;18.2;;;;;;;9.14;78.79785;94305.53;;;;
2019/04/10 02:38:14;;;;;;;25.8;18.2;;;;;;;9.14;78.79785;94305.53;;;;
2019/04/10 02:39:16;;;;;;;25.8;18.2;;;;;;;9.14;78.79785;94305.53;;;;
2019/04/10 02:40:17;;;;;;;25.8;18.2;;;;;;;9.14;78.79785;94305.53;;;;
2019/04/10 02:41:18;;;;;;;25.8;18.2;;;;;;;9.14;78.79785;94305.53;;;;
2019/04/10 02:42:19;;;;;;;25.8;18.2;;;;;;;9.14;78.79785;94305.53;;;;
2019/04/10 02:43:20;;;;;;;25.8;18.2;;;;;;;9.14;78.79785;94305.53;;;;
2019/04/10 02:44:22;;;;;;;25.8;18.2;;;;;;;9.14;78.79785;94305.53;;;;
2019/04/10 02:45:23;;;;;;;25.8;18.2;;;;;;;9.14;78.79785;94305.53;;;;
2019/04/10 02:46:24;;;;;;;25.8;18.2;;;;;;;9.14;78.79785;94305.53;;;;
2019/04/10 02:47:25;;;;;;;25.8;18.2;;;;;;;9.14;78.79785;94305.53;;;;
2019/04/10 02:48:26;;;;;;;25.7;18.2;;;;;;;9.1;78.8418;94299.98;;;;
2019/04/10 02:49:28;;;;;;;25.7;18.2;;;;;;;9.1;78.8418;94299.98;;;;
2019/04/10 02:50:29;;;;;;;25.7;18.2;;;;;;;9.1;78.8418;94299.98;;;;
2019/04/10 02:51:30;;;;;;;25.7;18.2;;;;;;;9.1;78.8418;94299.98;;;;
2019/04/10 02:52:31;;;;;;;25.7;18.2;;;;;;;9.1;78.8418;94299.98;;;;
2019/04/10 02:53:32;;;;;;;25.7;18.2;;;;;;;9.1;78.8418;94299.98;;;;
2019/04/10 02:54:33;;;;;;;25.7;18.2;;;;;;;9.1;78.8418;94299.98;;;;
2019/04/10 02:55:35;;;;;;;25.7;18.2;;;;;;;9.1;78.8418;94299.98;;;;
2019/04/10 02:56:36;;;;;;;25.7;18.2;;;;;;;9.1;78.8418;94299.98;;;;
2019/04/10 02:57:37;;;;;;;25.7;18.2;;;;;;;9.1;78.8418;94299.98;;;;
2019/04/10 02:58:38;;;;;;;29.95;19.75;;;;;;;9.15;79.0957;94307.3;;;;
2019/04/10 02:59:39;;;;;;;29.95;19.75;;;;;;;9.15;79.0957;94307.3;;;;
2019/04/10 03:00:41;;;;;;;29.95;19.75;;;;;;;9.15;79.0957;94307.3;;;;
2019/04/10 03:01:42;;;;;;;29.95;19.75;;;;;;;9.15;79.0957;94307.3;;;;
2019/04/10 03:02:43;;;;;;;29.95;19.75;;;;;;;9.15;79.0957;94307.3;;;;
2019/04/10 03:03:44;;;;;;;29.95;19.75;;;;;;;9.15;79.0957;94307.3;;;;
2019/04/10 03:04:45;;;;;;;29.95;19.75;;;;;;;9.15;79.0957;94307.3;;;;
2019/04/10 03:05:46;;;;;;;29.95;19.75;;;;;;;9.15;79.0957;94307.3;;;;
2019/04/10 03:06:48;;;;;;;29.95;19.75;;;;;;;9.15;79.0957;94307.3;;;;
2019/04/10 03:07:49;;;;;;;29.95;19.75;;;;;;;9.15;79.0957;94307.3;;;;
2019/04/10 03:08:50;;;;;;;29.95;19.75;;;;;;;9.15;79.0957;94307.3;;;;
2019/04/10 03:09:51;;;;;;;26.95;19.7;;;;;;;9.13;79.11133;94301.34;;;;
2019/04/10 03:10:52;;;;;;;26.95;19.7;;;;;;;9.13;79.11133;94301.34;;;;
2019/04/10 03:11:53;;;;;;;26.95;19.7;;;;;;;9.13;79.11133;94301.34;;;;
2019/04/10 03:12:55;;;;;;;26.95;19.7;;;;;;;9.13;79.11133;94301.34;;;;
2019/04/10 03:13:56;;;;;;;26.95;19.7;;;;;;;9.13;79.11133;94301.34;;;;
2019/04/10 03:14:57;;;;;;;26.95;19.7;;;;;;;9.13;79.11133;94301.34;;;;
2019/04/10 03:15:58;;;;;;;26.95;19.7;;;;;;;9.13;79.11133;94301.34;;;;
2019/04/10 03:16:59;;;;;;;26.95;19.7;;;;;;;9.13;79.11133;94301.34;;;;
2019/04/10 03:18:00;;;;;;;26.95;19.7;;;;;;;9.13;79.11133;94301.34;;;;
2019/04/10 03:19:02;;;;;;;26.95;19.7;;;;;;;9.13;79.11133;94301.34;;;;
2019/04/10 03:20:03;;;;;;;28;18.85;;;;;;;9.22;79.22656;94306.05;;;;
2019/04/10 03:21:04;;;;;;;28;18.85;;;;;;;9.22;79.22656;94306.05;;;;
2019/04/10 03:22:05;;;;;;;28;18.85;;;;;;;9.22;79.22656;94306.05;;;;
2019/04/10 03:23:06;;;;;;;28;18.85;;;;;;;9.22;79.22656;94306.05;;;;
2019/04/10 03:24:07;;;;;;;28;18.85;;;;;;;9.22;79.22656;94306.05;;;;
2019/04/10 03:25:09;;;;;;;28;18.85;;;;;;;9.22;79.22656;94306.05;;;;
2019/04/10 03:26:10;;;;;;;28;18.85;;;;;;;9.22;79.22656;94306.05;;;;
2019/04/10 03:27:12;;;;;;;28;18.85;;;;;;;9.22;79.22656;94306.05;;;;
2019/04/10 03:28:13;;;;;;;28;18.85;;;;;;;9.22;79.22656;94306.05;;;;
2019/04/10 03:29:14;;;;;;;28;18.85;;;;;;;9.22;79.22656;94306.05;;;;
2019/04/10 03:30:15;;;;;;;27.65;19.3;;;;;;;9.21;79.3418;94304.81;;;;
2019/04/10 03:31:16;;;;;;;27.65;19.3;;;;;;;9.21;79.3418;94304.81;;;;
2019/04/10 03:32:42;;;;;;;27.65;19.3;;;;;;;9.21;79.3418;94304.81;;;;
2019/04/10 03:33:49;;;;;;;27.65;19.3;;;;;;;9.21;79.3418;94304.81;;;;
2019/04/10 03:34:52;;;;;;;27.65;19.3;;;;;;;9.21;79.3418;94304.81;;;;
2019/04/10 03:35:53;;;;;;;27.65;19.3;;;;;;;9.21;79.3418;94304.81;;;;
2019/04/10 03:36:54;;;;;;;27.65;19.3;;;;;;;9.21;79.3418;94304.81;;;;
2019/04/10 03:37:55;;;;;;;27.65;19.3;;;;;;;9.21;79.3418;94304.81;;;;
2019/04/10 03:38:56;;;;;;;27.65;19.3;;;;;;;9.21;79.3418;94304.81;;;;
2019/04/10 03:39:58;;;;;;;27.65;19.3;;;;;;;9.21;79.3418;94304.81;;;;
2019/04/10 03:40:59;;;;;;;27.05;18.65;;;;;;;9.28;79.72656;94312.31;;;;
2019/04/10 03:42:00;;;;;;;27.05;18.65;;;;;;;9.28;79.72656;94312.31;;;;
2019/04/10 03:43:01;;;;;;;27.05;18.65;;;;;;;9.28;79.72656;94312.31;;;;
2019/04/10 03:44:02;;;;;;;27.05;18.65;;;;;;;9.28;79.72656;94312.31;;;;
2019/04/10 03:45:04;;;;;;;27.05;18.65;;;;;;;9.28;79.72656;94312.31;;;;
2019/04/10 03:46:05;;;;;;;27.05;18.65;;;;;;;9.28;79.72656;94312.31;;;;
2019/04/10 03:47:06;;;;;;;27.05;18.65;;;;;;;9.28;79.72656;94312.31;;;;
2019/04/10 03:48:07;;;;;;;27.05;18.65;;;;;;;9.28;79.72656;94312.31;;;;
2019/04/10 03:49:08;;;;;;;27.05;18.65;;;;;;;9.28;79.72656;94312.31;;;;
2019/04/10 03:50:09;;;;;;;27.05;18.65;;;;;;;9.28;79.72656;94312.31;;;;
2019/04/10 03:51:11;;;;;;;27.05;18.65;;;;;;;9.28;79.72656;94312.31;;;;
2019/04/10 03:52:12;;;;;;;26.05;18.35;;;;;;;9.26;79.64844;94313.09;;;;
2019/04/10 03:53:13;;;;;;;26.05;18.35;;;;;;;9.26;79.64844;94313.09;;;;
2019/04/10 03:54:14;;;;;;;26.05;18.35;;;;;;;9.26;79.64844;94313.09;;;;
2019/04/10 03:55:15;;;;;;;26.05;18.35;;;;;;;9.26;79.64844;94313.09;;;;
2019/04/10 03:56:17;;;;;;;26.05;18.35;;;;;;;9.26;79.64844;94313.09;;;;
2019/04/10 03:57:18;;;;;;;26.05;18.35;;;;;;;9.26;79.64844;94313.09;;;;
2019/04/10 03:58:19;;;;;;;26.05;18.35;;;;;;;9.26;79.64844;94313.09;;;;
2019/04/10 03:59:20;;;;;;;26.05;18.35;;;;;;;9.26;79.64844;94313.09;;;;
2019/04/10 04:00:21;;;;;;;26.05;18.35;;;;;;;9.26;79.64844;94313.09;;;;
2019/04/10 04:01:22;;;;;;;26.05;18.35;;;;;;;9.26;79.64844;94313.09;;;;
2019/04/10 04:02:24;;;;;;;26.05;18.35;;;;;;;9.26;79.64844;94313.09;;;;
2019/04/10 04:03:25;;;;;;;26.05;18.35;;;;;;;9.26;79.64844;94313.09;;;;
2019/04/10 04:04:26;;;;;;;26.05;18.35;;;;;;;9.26;79.64844;94313.09;;;;
2019/04/10 04:05:27;;;;;;;26.05;18.35;;;;;;;9.26;79.64844;94313.09;;;;
2019/04/10 04:06:28;;;;;;;26.05;18.35;;;;;;;9.26;79.64844;94313.09;;;;
2019/04/10 04:07:30;;;;;;;26.05;18.35;;;;;;;9.26;79.64844;94313.09;;;;
2019/04/10 04:08:31;;;;;;;26.05;18.35;;;;;;;9.26;79.64844;94313.09;;;;
2019/04/10 04:09:32;;;;;;;26.05;18.35;;;;;;;9.26;79.64844;94313.09;;;;
2019/04/10 04:10:33;;;;;;;26.05;18.35;;;;;;;9.26;79.64844;94313.09;;;;
2019/04/10 04:11:34;;;;;;;26.05;18.35;;;;;;;9.26;79.64844;94313.09;;;;
2019/04/10 04:12:35;;;;;;;26.05;18.35;;;;;;;9.26;79.64844;94313.09;;;;
2019/04/10 04:13:37;;;;;;;26.05;18.35;;;;;;;9.26;79.64844;94313.09;;;;
2019/04/10 04:14:38;;;;;;;26.05;18.35;;;;;;;9.26;79.64844;94313.09;;;;
2019/04/10 04:15:39;;;;;;;26.05;18.35;;;;;;;9.26;79.64844;94313.09;;;;
2019/04/10 04:16:40;;;;;;;26.05;18.35;;;;;;;9.26;79.64844;94313.09;;;;
2019/04/10 04:17:41;;;;;;;26.05;18.35;;;;;;;9.26;79.64844;94313.09;;;;
2019/04/10 04:18:43;;;;;;;26.05;18.35;;;;;;;9.26;79.64844;94313.09;;;;
2019/04/10 04:19:44;;;;;;;26.05;18.35;;;;;;;9.26;79.64844;94313.09;;;;
2019/04/10 04:20:45;;;;;;;26.05;18.35;;;;;;;9.26;79.64844;94313.09;;;;
2019/04/10 04:21:46;;;;;;;26.05;18.35;;;;;;;9.26;79.64844;94313.09;;;;
2019/04/10 04:22:47;;;;;;;26.05;18.35;;;;;;;9.26;79.64844;94313.09;;;;
2019/04/10 04:23:48;;;;;;;20.35;14.8;;;;;;;9.26;80.4043;94305.42;;;;
2019/04/10 04:24:49;;;;;;;20.35;14.8;;;;;;;9.26;80.4043;94305.42;;;;
2019/04/10 04:25:51;;;;;;;20.35;14.8;;;;;;;9.26;80.4043;94305.42;;;;
2019/04/10 04:26:52;;;;;;;20.35;14.8;;;;;;;9.26;80.4043;94305.42;;;;
2019/04/10 04:27:53;;;;;;;20.35;14.8;;;;;;;9.26;80.4043;94305.42;;;;
2019/04/10 04:28:54;;;;;;;20.35;14.8;;;;;;;9.26;80.4043;94305.42;;;;
2019/04/10 04:29:55;;;;;;;20.35;14.8;;;;;;;9.26;80.4043;94305.42;;;;
2019/04/10 04:30:56;;;;;;;20.35;14.8;;;;;;;9.26;80.4043;94305.42;;;;
2019/04/10 04:31:58;;;;;;;20.35;14.8;;;;;;;9.26;80.4043;94305.42;;;;
2019/04/10 04:32:59;;;;;;;20.35;14.8;;;;;;;9.26;80.4043;94305.42;;;;
2019/04/10 04:34:00;;;;;;;20.35;14.8;;;;;;;9.26;80.4043;94305.42;;;;
2019/04/10 04:35:01;;;;;;;20.35;14.8;;;;;;;9.26;80.4043;94305.42;;;;
2019/04/10 04:36:02;;;;;;;20.35;14.8;;;;;;;9.26;80.4043;94305.42;;;;
2019/04/10 04:37:03;;;;;;;20.35;14.8;;;;;;;9.26;80.4043;94305.42;;;;
2019/04/10 04:38:05;;;;;;;20.35;14.8;;;;;;;9.26;80.4043;94305.42;;;;
2019/04/10 04:39:06;;;;;;;20.35;14.8;;;;;;;9.26;80.4043;94305.42;;;;
2019/04/10 04:40:07;;;;;;;20.35;14.8;;;;;;;9.26;80.4043;94305.42;;;;
2019/04/10 04:41:08;;;;;;;20.35;14.8;;;;;;;9.26;80.4043;94305.42;;;;
2019/04/10 04:42:09;;;;;;;20.35;14.8;;;;;;;9.26;80.4043;94305.42;;;;
2019/04/10 04:43:11;;;;;;;20.35;14.8;;;;;;;9.26;80.4043;94305.42;;;;
2019/04/10 04:44:12;;;;;;;20.35;14.8;;;;;;;9.26;80.4043;94305.42;;;;
2019/04/10 04:45:13;;;;;;;17.65;13.4;;;;;;;9.22;80.55762;94311.84;;;;
2019/04/10 04:46:14;;;;;;;17.65;13.4;;;;;;;9.22;80.55762;94311.84;;;;
2019/04/10 04:47:15;;;;;;;17.65;13.4;;;;;;;9.22;80.55762;94311.84;;;;
2019/04/10 04:48:16;;;;;;;17.65;13.4;;;;;;;9.22;80.55762;94311.84;;;;
2019/04/10 04:49:18;;;;;;;17.65;13.4;;;;;;;9.22;80.55762;94311.84;;;;
2019/04/10 04:50:19;;;;;;;17.65;13.4;;;;;;;9.22;80.55762;94311.84;;;;
2019/04/10 04:51:20;;;;;;;17.65;13.4;;;;;;;9.22;80.55762;94311.84;;;;
2019/04/10 04:52:21;;;;;;;17.65;13.4;;;;;;;9.22;80.55762;94311.84;;;;
2019/04/10 04:53:22;;;;;;;17.65;13.4;;;;;;;9.22;80.55762;94311.84;;;;
2019/04/10 04:54:23;;;;;;;17.65;13.4;;;;;;;9.22;80.55762;94311.84;;;;
2019/04/10 04:55:25;;;;;;;17.65;13.4;;;;;;;9.22;80.55762;94311.84;;;;
2019/04/10 04:56:26;;;;;;;17.65;13.4;;;;;;;9.22;80.55762;94311.84;;;;
2019/04/10 04:57:27;;;;;;;17.65;13.4;;;;;;;9.22;80.55762;94311.84;;;;
2019/04/10 04:58:28;;;;;;;17.65;13.4;;;;;;;9.22;80.55762;94311.84;;;;
2019/04/10 04:59:29;;;;;;;17.65;13.4;;;;;;;9.22;80.55762;94311.84;;;;
2019/04/10 05:00:30;;;;;;;17.65;13.4;;;;;;;9.22;80.55762;94311.84;;;;
2019/04/10 05:01:32;;;;;;;17.65;13.4;;;;;;;9.22;80.55762;94311.84;;;;
2019/04/10 05:02:33;;;;;;;17.65;13.4;;;;;;;9.22;80.55762;94311.84;;;;
2019/04/10 05:03:34;;;;;;;17.65;13.4;;;;;;;9.22;80.55762;94311.84;;;;
2019/04/10 05:04:35;;;;;;;17.65;13.4;;;;;;;9.22;80.55762;94311.84;;;;
2019/04/10 05:05:36;;;;;;;19.1;13.5;;;;;;;9.21;80.90723;94325.01;;;;
2019/04/10 05:06:37;;;;;;;19.1;13.5;;;;;;;9.21;80.90723;94325.01;;;;
2019/04/10 05:07:39;;;;;;;19.1;13.5;;;;;;;9.21;80.90723;94325.01;;;;
2019/04/10 05:08:40;;;;;;;19.1;13.5;;;;;;;9.21;80.90723;94325.01;;;;
2019/04/10 05:09:41;;;;;;;19.1;13.5;;;;;;;9.21;80.90723;94325.01;;;;
2019/04/10 05:10:42;;;;;;;19.1;13.5;;;;;;;9.21;80.90723;94325.01;;;;
2019/04/10 05:11:43;;;;;;;19.1;13.5;;;;;;;9.21;80.90723;94325.01;;;;
2019/04/10 05:12:44;;;;;;;19.1;13.5;;;;;;;9.21;80.90723;94325.01;;;;
2019/04/10 05:13:46;;;;;;;19.1;13.5;;;;;;;9.21;80.90723;94325.01;;;;
2019/04/10 05:14:47;;;;;;;19.1;13.5;;;;;;;9.21;80.90723;94325.01;;;;
2019/04/10 05:15:48;;;;;;;19.1;13.5;;;;;;;9.21;80.90723;94325.01;;;;
2019/04/10 05:16:49;;;;;;;20.3;13.2;;;;;;;9.24;80.83789;94331.27;;;;
2019/04/10 05:17:50;;;;;;;20.3;13.2;;;;;;;9.24;80.83789;94331.27;;;;
2019/04/10 05:18:52;;;;;;;20.3;13.2;;;;;;;9.24;80.83789;94331.27;;;;
2019/04/10 05:19:53;;;;;;;20.3;13.2;;;;;;;9.24;80.83789;94331.27;;;;
2019/04/10 05:20:54;;;;;;;20.3;13.2;;;;;;;9.24;80.83789;94331.27;;;;
2019/04/10 05:21:55;;;;;;;20.3;13.2;;;;;;;9.24;80.83789;94331.27;;;;
2019/04/10 05:22:56;;;;;;;20.3;13.2;;;;;;;9.24;80.83789;94331.27;;;;
2019/04/10 05:23:57;;;;;;;20.3;13.2;;;;;;;9.24;80.83789;94331.27;;;;
2019/04/10 05:24:59;;;;;;;20.3;13.2;;;;;;;9.24;80.83789;94331.27;;;;
2019/04/10 05:26:00;;;;;;;20.3;13.2;;;;;;;9.24;80.83789;94331.27;;;;
2019/04/10 05:27:01;;;;;;;18.8;12.7;;;;;;;9.33;80.99414;94329.76;;;;
2019/04/10 05:28:02;;;;;;;18.8;12.7;;;;;;;9.33;80.99414;94329.76;;;;
2019/04/10 05:29:03;;;;;;;18.8;12.7;;;;;;;9.33;80.99414;94329.76;;;;
2019/04/10 05:30:05;;;;;;;18.8;12.7;;;;;;;9.33;80.99414;94329.76;;;;
2019/04/10 05:31:06;;;;;;;18.8;12.7;;;;;;;9.33;80.99414;94329.76;;;;
2019/04/10 05:32:07;;;;;;;18.8;12.7;;;;;;;9.33;80.99414;94329.76;;;;
2019/04/10 05:33:08;;;;;;;18.8;12.7;;;;;;;9.33;80.99414;94329.76;;;;
2019/04/10 05:34:09;;;;;;;18.8;12.7;;;;;;;9.33;80.99414;94329.76;;;;
2019/04/10 05:35:10;;;;;;;18.8;12.7;;;;;;;9.33;80.99414;94329.76;;;;
2019/04/10 05:36:12;;;;;;;18.8;12.7;;;;;;;9.33;80.99414;94329.76;;;;
2019/04/10 05:37:13;;;;;;;18.95;14.1;;;;;;;9.33;80.88574;94336.61;;;;
2019/04/10 05:38:14;;;;;;;18.95;14.1;;;;;;;9.33;80.88574;94336.61;;;;
2019/04/10 05:39:15;;;;;;;18.95;14.1;;;;;;;9.33;80.88574;94336.61;;;;
2019/04/10 05:40:16;;;;;;;18.95;14.1;;;;;;;9.33;80.88574;94336.61;;;;
2019/04/10 05:41:17;;;;;;;18.95;14.1;;;;;;;9.33;80.88574;94336.61;;;;
2019/04/10 05:42:18;;;;;;;18.95;14.1;;;;;;;9.33;80.88574;94336.61;;;;
2019/04/10 05:43:20;;;;;;;18.95;14.1;;;;;;;9.33;80.88574;94336.61;;;;
2019/04/10 05:44:21;;;;;;;18.95;14.1;;;;;;;9.33;80.88574;94336.61;;;;
2019/04/10 05:45:22;;;;;;;18.95;14.1;;;;;;;9.33;80.88574;94336.61;;;;
2019/04/10 05:46:23;;;;;;;18.95;14.1;;;;;;;9.33;80.88574;94336.61;;;;
2019/04/10 05:47:24;;;;;;;18.95;14.1;;;;;;;9.33;80.88574;94336.61;;;;
2019/04/10 05:48:25;;;;;;;19.05;14.3;;;;;;;9.38;81.12988;94345.98;;;;
2019/04/10 05:49:27;;;;;;;19.05;14.3;;;;;;;9.38;81.12988;94345.98;;;;